Time;durP1;ratioP1;P1;durP2;ratioP2;P2;SDS_P1;SDS_P2;PMS_P1;PMS_P2;Temp;Humidity;BMP_temperature;BMP_pressure;BME280_temperature;BME280_humidity;BME280_pressure;Samples;Min_cycle;Max_cycle;Signal;HPM_P1;HPM_P2
2023/05/31 05:50:49;;;;;;;9.15;5.85;;;;;;;;;;10547969;27;20479;-82
2023/05/31 05:55:51;;;;;;;8.50;5.75;;;;;;;;;;10546502;28;20031;-82
2023/05/31 06:00:52;;;;;;;8.77;6.90;;;;;;;;;;10514670;22;20045;-85
2023/05/31 06:05:59;;;;;;;10.70;7.97;;;;;;;;;;10413657;28;20021;-86
2023/05/31 06:11:08;;;;;;;9.75;7.00;;;;;;;;;;10434639;28;20022;-86
2023/05/31 06:16:10;;;;;;;13.07;7.68;;;;;;;;;;10410088;28;20176;-86
2023/05/31 06:21:11;;;;;;;9.18;7.28;;;;;;;;;;10409271;28;20075;-86
2023/05/31 06:26:12;;;;;;;11.43;7.18;;;;;;;;;;10408830;28;20057;-87
2023/05/31 06:31:13;;;;;;;14.50;10.00;;;;;;;;;;10410551;28;20083;-86
2023/05/31 06:36:14;;;;;;;6.45;5.68;;;;;;;;;;10408405;28;20076;-87
2023/05/31 06:41:16;;;;;;;12.07;8.00;;;;;;;;;;10420807;28;20048;-86
2023/05/31 06:46:17;;;;;;;9.52;6.22;;;;;;;;;;10410775;28;20026;-86
2023/05/31 06:51:20;;;;;;;9.98;6.78;;;;;;;;;;10421514;28;20061;-86
2023/05/31 06:56:30;;;;;;;10.27;6.15;;;;;;;;;;10408438;28;20022;-88
2023/05/31 07:01:31;;;;;;;9.37;6.53;;;;;;;;;;10385231;28;20037;-85
2023/05/31 07:06:32;;;;;;;5.93;4.35;;;;;;;;;;10385614;28;20319;-85
2023/05/31 07:11:33;;;;;;;5.10;3.33;;;;;;;;;;10387717;28;20022;-85
2023/05/31 07:16:35;;;;;;;6.85;4.05;;;;;;;;;;10388510;28;20041;-85
2023/05/31 07:21:40;;;;;;;10.63;6.78;;;;;;;;;;10387534;28;20018;-85
2023/05/31 07:26:41;;;;;;;6.45;4.88;;;;;;;;;;10386059;28;20033;-85
2023/05/31 07:31:42;;;;;;;10.18;5.65;;;;;;;;;;10386424;28;20033;-84
2023/05/31 07:36:43;;;;;;;8.02;5.85;;;;;;;;;;10387397;28;20434;-84
2023/05/31 07:41:44;;;;;;;10.13;6.72;;;;;;;;;;10386410;28;20069;-85
2023/05/31 07:46:45;;;;;;;9.10;5.57;;;;;;;;;;10383866;28;20087;-86
2023/05/31 07:51:46;;;;;;;8.38;5.80;;;;;;;;;;10383058;28;20111;-85
2023/05/31 07:56:54;;;;;;;7.72;5.80;;;;;;;;;;10383540;28;20053;-85
2023/05/31 08:01:55;;;;;;;11.27;5.50;;;;;;;;;;10387125;28;20094;-85
2023/05/31 08:06:56;;;;;;;9.65;6.75;;;;;;;;;;10388207;28;20022;-85
2023/05/31 08:11:57;;;;;;;7.15;5.32;;;;;;;;;;10384920;28;20033;-84
2023/05/31 08:17:04;;;;;;;7.47;5.32;;;;;;;;;;10387808;28;20061;-85
2023/05/31 08:22:05;;;;;;;8.15;5.30;;;;;;;;;;10386610;28;20032;-85
2023/05/31 08:27:06;;;;;;;7.32;5.20;;;;;;;;;;10387693;28;20040;-85
2023/05/31 08:32:07;;;;;;;6.32;4.45;;;;;;;;;;10385801;28;20468;-84
2023/05/31 08:37:08;;;;;;;6.55;3.95;;;;;;;;;;10385606;28;20152;-84
2023/05/31 08:42:15;;;;;;;7.20;4.60;;;;;;;;;;10391832;28;20021;-85
2023/05/31 08:47:33;;;;;;;8.10;4.20;;;;;;;;;;10393616;28;20120;-85
2023/05/31 08:52:34;;;;;;;6.63;3.50;;;;;;;;;;10397768;28;20037;-84
2023/05/31 08:57:37;;;;;;;7.45;4.82;;;;;;;;;;10404794;28;20030;-86
2023/05/31 09:02:38;;;;;;;12.65;8.32;;;;;;;;;;10389084;28;20033;-85
2023/05/31 09:07:40;;;;;;;7.32;4.15;;;;;;;;;;10388680;28;20038;-85
2023/05/31 09:12:41;;;;;;;9.82;4.18;;;;;;;;;;10383448;28;20025;-86
2023/05/31 09:17:43;;;;;;;6.88;3.83;;;;;;;;;;10385088;28;20093;-84
2023/05/31 09:22:51;;;;;;;9.50;5.18;;;;;;;;;;10382679;28;20026;-86
2023/05/31 09:27:52;;;;;;;6.32;4.25;;;;;;;;;;10382008;28;20053;-84
2023/05/31 09:32:54;;;;;;;6.60;3.63;;;;;;;;;;10384650;28;20029;-85
2023/05/31 09:37:56;;;;;;;8.90;4.20;;;;;;;;;;10383103;28;20017;-85
2023/05/31 09:42:57;;;;;;;10.23;3.80;;;;;;;;;;10387243;28;20361;-84
2023/05/31 09:47:59;;;;;;;10.55;7.63;;;;;;;;;;10386724;28;20055;-84
2023/05/31 09:53:00;;;;;;;5.97;3.90;;;;;;;;;;10380203;28;20117;-83
2023/05/31 09:58:03;;;;;;;5.70;3.03;;;;;;;;;;10381134;28;20033;-84
2023/05/31 10:03:04;;;;;;;6.28;3.20;;;;;;;;;;10379513;28;20033;-84
2023/05/31 10:08:05;;;;;;;8.25;4.00;;;;;;;;;;10382177;28;20112;-84
2023/05/31 10:13:10;;;;;;;6.38;3.92;;;;;;;;;;10383371;28;20022;-84
2023/05/31 10:18:12;;;;;;;10.13;3.58;;;;;;;;;;10386496;28;20025;-85
2023/05/31 10:23:17;;;;;;;6.47;2.80;;;;;;;;;;10381415;28;20033;-84
2023/05/31 10:28:20;;;;;;;7.78;3.00;;;;;;;;;;10384724;28;20396;-84
2023/05/31 10:33:23;;;;;;;6.80;3.00;;;;;;;;;;10386006;28;20480;-84
2023/05/31 10:38:32;;;;;;;5.65;3.05;;;;;;;;;;10392156;28;20084;-84
2023/05/31 10:43:34;;;;;;;5.82;3.00;;;;;;;;;;10392336;28;20479;-85
2023/05/31 10:48:47;;;;;;;5.55;2.83;;;;;;;;;;10391528;28;20053;-84
2023/05/31 10:53:51;;;;;;;7.85;2.13;;;;;;;;;;10387550;28;20542;-85
2023/05/31 10:58:53;;;;;;;7.38;2.58;;;;;;;;;;10386310;28;20034;-84
2023/05/31 11:09:45;;;;;;;7.28;3.50;;;;;;;;;;10401534;28;20492;-86
2023/05/31 11:15:15;;;;;;;6.55;3.10;;;;;;;;;;10389027;28;20065;-85
2023/05/31 11:20:27;;;;;;;5.15;2.80;;;;;;;;;;10390598;28;20033;-85
2023/05/31 11:25:39;;;;;;;5.13;2.75;;;;;;;;;;10390973;28;20399;-85
2023/05/31 11:30:46;;;;;;;5.93;2.92;;;;;;;;;;10394532;28;20030;-85
2023/05/31 11:35:47;;;;;;;5.75;2.25;;;;;;;;;;10404419;28;20022;-85
2023/05/31 11:40:49;;;;;;;5.55;2.60;;;;;;;;;;10411586;28;20078;-85
2023/05/31 11:46:13;;;;;;;5.47;2.60;;;;;;;;;;10380132;28;20435;-85
2023/05/31 11:51:16;;;;;;;4.63;2.33;;;;;;;;;;10387804;28;20030;-83
2023/05/31 11:56:19;;;;;;;3.55;2.20;;;;;;;;;;10388624;28;20022;-83
2023/05/31 12:01:21;;;;;;;5.40;2.30;;;;;;;;;;10434427;22;20045;-85
2023/05/31 12:06:22;;;;;;;6.35;2.90;;;;;;;;;;10438725;28;20030;-82
2023/05/31 12:11:29;;;;;;;6.07;3.65;;;;;;;;;;10429165;28;20510;-83
2023/05/31 12:16:32;;;;;;;6.55;2.60;;;;;;;;;;10429796;28;20032;-83
2023/05/31 12:21:33;;;;;;;5.65;2.88;;;;;;;;;;10427318;28;20033;-83
2023/05/31 12:26:36;;;;;;;6.15;2.50;;;;;;;;;;10427909;28;20036;-83
2023/05/31 12:31:37;;;;;;;8.98;2.80;;;;;;;;;;10425529;28;20064;-83
2023/05/31 12:36:41;;;;;;;6.85;3.72;;;;;;;;;;10425616;28;20040;-83
2023/05/31 12:41:44;;;;;;;5.75;2.63;;;;;;;;;;10428419;28;20039;-83
2023/05/31 12:46:45;;;;;;;4.60;2.35;;;;;;;;;;10445543;28;20021;-84
2023/05/31 12:51:46;;;;;;;6.15;4.00;;;;;;;;;;10448497;28;20494;-83
2023/05/31 12:56:47;;;;;;;6.53;2.47;;;;;;;;;;10443885;28;20033;-84
2023/05/31 13:01:55;;;;;;;6.22;3.88;;;;;;;;;;10433122;28;20403;-83
2023/05/31 13:07:01;;;;;;;5.75;2.50;;;;;;;;;;10440645;28;20017;-83
2023/05/31 13:12:02;;;;;;;5.63;3.08;;;;;;;;;;10461497;28;20030;-84
2023/05/31 13:17:05;;;;;;;7.03;2.60;;;;;;;;;;10431649;28;20099;-84
2023/05/31 13:22:06;;;;;;;6.57;4.47;;;;;;;;;;10427683;28;20487;-84
2023/05/31 13:27:09;;;;;;;4.85;2.35;;;;;;;;;;10424561;28;20085;-84
2023/05/31 13:32:10;;;;;;;5.07;2.35;;;;;;;;;;10426478;28;20121;-84
2023/05/31 13:37:11;;;;;;;9.88;2.40;;;;;;;;;;10427215;28;20029;-83
2023/05/31 13:42:14;;;;;;;6.53;2.17;;;;;;;;;;10426225;28;20013;-84
2023/05/31 13:47:16;;;;;;;6.75;2.80;;;;;;;;;;10447486;28;20013;-83
2023/05/31 13:52:17;;;;;;;4.72;2.25;;;;;;;;;;10427990;28;20029;-84
2023/05/31 13:57:18;;;;;;;5.35;2.58;;;;;;;;;;10426574;28;20129;-83
2023/05/31 14:02:22;;;;;;;6.00;2.40;;;;;;;;;;10425788;28;20056;-83
2023/05/31 14:07:23;;;;;;;6.70;3.33;;;;;;;;;;10423861;28;20087;-83
2023/05/31 14:12:24;;;;;;;6.45;2.60;;;;;;;;;;10433500;28;20030;-83
2023/05/31 14:17:26;;;;;;;6.68;3.15;;;;;;;;;;10433888;28;20033;-83
2023/05/31 14:22:27;;;;;;;13.45;6.53;;;;;;;;;;10435805;28;20049;-83
2023/05/31 14:27:28;;;;;;;9.30;3.25;;;;;;;;;;10433958;28;20057;-84
2023/05/31 14:32:30;;;;;;;5.15;2.22;;;;;;;;;;10434857;28;20021;-83
2023/05/31 14:37:56;;;;;;;6.78;2.45;;;;;;;;;;10435649;28;20037;-84
2023/05/31 14:43:48;;;;;;;6.22;2.63;;;;;;;;;;10439018;28;20029;-83
2023/05/31 14:49:05;;;;;;;5.20;2.30;;;;;;;;;;10437104;28;20025;-83
2023/05/31 14:54:07;;;;;;;3.67;2.40;;;;;;;;;;10434185;28;20466;-83
2023/05/31 14:59:08;;;;;;;5.53;2.20;;;;;;;;;;10432564;28;20029;-84
2023/05/31 15:04:11;;;;;;;4.70;2.67;;;;;;;;;;10438547;28;20025;-84
2023/05/31 15:09:14;;;;;;;5.93;4.18;;;;;;;;;;10434070;28;20033;-83
2023/05/31 15:14:20;;;;;;;5.10;2.63;;;;;;;;;;10433507;28;20031;-82
2023/05/31 15:19:21;;;;;;;7.40;3.50;;;;;;;;;;10433356;28;20061;-83
2023/05/31 15:24:22;;;;;;;5.32;3.17;;;;;;;;;;10436071;28;20089;-83
2023/05/31 15:29:31;;;;;;;7.35;3.03;;;;;;;;;;10435784;28;20029;-83
2023/05/31 15:34:32;;;;;;;6.35;4.45;;;;;;;;;;10435858;28;20052;-84
2023/05/31 15:39:35;;;;;;;5.22;2.35;;;;;;;;;;10433136;28;20026;-81
2023/05/31 15:44:42;;;;;;;4.90;2.60;;;;;;;;;;10434136;28;20060;-83
2023/05/31 15:49:43;;;;;;;8.93;3.17;;;;;;;;;;10431752;28;20422;-82
2023/05/31 15:54:44;;;;;;;5.53;3.20;;;;;;;;;;10432609;28;20052;-82
2023/05/31 15:59:50;;;;;;;5.65;3.00;;;;;;;;;;10441175;28;20034;-82
2023/05/31 16:04:57;;;;;;;4.93;2.78;;;;;;;;;;10435576;28;20037;-82
2023/05/31 16:09:58;;;;;;;4.10;2.70;;;;;;;;;;10432644;28;20029;-82
2023/05/31 16:15:00;;;;;;;4.63;2.45;;;;;;;;;;10436282;28;20045;-82
2023/05/31 16:20:01;;;;;;;7.57;3.80;;;;;;;;;;10444344;28;20131;-84
2023/05/31 16:25:02;;;;;;;6.40;3.10;;;;;;;;;;10448503;28;20021;-84
2023/05/31 16:30:09;;;;;;;4.80;3.00;;;;;;;;;;10444344;28;20475;-82
2023/05/31 16:35:10;;;;;;;5.00;2.60;;;;;;;;;;10448857;28;20033;-83
2023/05/31 16:40:11;;;;;;;5.10;2.22;;;;;;;;;;10465514;28;20041;-84
2023/05/31 16:45:12;;;;;;;5.25;2.80;;;;;;;;;;10456763;28;20025;-84
2023/05/31 16:50:17;;;;;;;5.57;2.95;;;;;;;;;;10437673;28;20043;-84
2023/05/31 16:55:19;;;;;;;5.28;2.30;;;;;;;;;;10436837;28;20048;-83
2023/05/31 17:00:21;;;;;;;5.95;2.90;;;;;;;;;;10448241;28;20048;-84
2023/05/31 17:05:22;;;;;;;5.13;2.40;;;;;;;;;;10432287;28;20021;-83
2023/05/31 17:10:29;;;;;;;4.18;2.30;;;;;;;;;;10433497;28;20026;-84
2023/05/31 17:15:31;;;;;;;3.78;2.20;;;;;;;;;;10427674;28;20025;-83
2023/05/31 17:20:37;;;;;;;4.40;2.60;;;;;;;;;;10426721;28;20033;-84
2023/05/31 17:25:38;;;;;;;4.53;2.55;;;;;;;;;;10427490;28;20464;-82
2023/05/31 17:30:39;;;;;;;5.65;3.08;;;;;;;;;;10431325;28;20533;-83
2023/05/31 17:35:43;;;;;;;5.43;2.95;;;;;;;;;;10429345;28;20059;-83
2023/05/31 17:40:58;;;;;;;4.40;2.00;;;;;;;;;;10429248;28;20048;-83
2023/05/31 17:45:59;;;;;;;5.43;2.20;;;;;;;;;;10443609;28;20021;-84
2023/05/31 17:51:23;;;;;;;4.00;2.35;;;;;;;;;;10443039;28;20399;-82
2023/05/31 17:56:26;;;;;;;9.82;2.85;;;;;;;;;;10426983;28;20044;-83
2023/05/31 18:01:39;;;;;;;4.68;3.20;;;;;;;;;;10424803;28;20387;-83
2023/05/31 18:06:46;;;;;;;4.18;2.10;;;;;;;;;;10423653;28;20021;-84
2023/05/31 18:11:47;;;;;;;5.25;2.50;;;;;;;;;;10423499;28;20018;-83
2023/05/31 18:16:49;;;;;;;4.38;2.97;;;;;;;;;;10422722;28;20069;-82
2023/05/31 18:21:53;;;;;;;5.13;2.20;;;;;;;;;;10427986;28;20049;-82
2023/05/31 18:26:55;;;;;;;7.43;5.57;;;;;;;;;;10424361;28;20079;-83
2023/05/31 18:31:56;;;;;;;3.67;2.30;;;;;;;;;;10428011;28;20029;-83
2023/05/31 18:36:57;;;;;;;4.45;2.47;;;;;;;;;;10434170;28;20025;-83
2023/05/31 18:41:59;;;;;;;4.20;2.47;;;;;;;;;;10443610;28;20014;-83
2023/05/31 18:47:00;;;;;;;6.85;3.20;;;;;;;;;;10463261;28;20043;-83
2023/05/31 18:52:01;;;;;;;4.25;2.20;;;;;;;;;;10447158;28;20411;-82
2023/05/31 18:57:03;;;;;;;3.65;2.20;;;;;;;;;;10452863;28;20105;-83
2023/05/31 19:02:04;;;;;;;4.03;2.70;;;;;;;;;;10453176;28;20387;-82
2023/05/31 19:07:06;;;;;;;5.72;2.22;;;;;;;;;;10453810;28;20045;-83
2023/05/31 19:12:13;;;;;;;4.85;2.42;;;;;;;;;;10433170;28;20056;-84
